Thursday, March 22, 2018, 9:55 AM EDT
Back to Local

KMGW, Morgantown Muni-hart Field

Location: Morgantown, WV, United States Lat: 39.65
Local Time: 9:55 AM EDT (13:55 GMT) Lon: -79.917
Time Zone: US/Eastern Elev: 1246 ft

Show me the last for .
Show Decoded

2018-03-22 08:53 METAR KMGW 221253Z 30003KT 10SM OVC013 M03/M05 A3013 RMK AO2 SLP215 T10281050 =
2018-03-22 07:53 METAR KMGW 221153Z 00000KT 10SM OVC014 M03/M06 A3011 RMK AO2 SLP209 70007
                 T10331056 11017 21050 53019 =
2018-03-22 07:38 METAR KMGW 221138Z 00000KT 10SM OVC014 M03/M06 A3010 RMK AO2 T10331056 =
2018-03-22 06:53 METAR KMGW 221053Z 00000KT 10SM BKN016 M04/M06 A3009 RMK AO2 SLP202 T10441061 =
2018-03-22 05:53 METAR KMGW 220953Z AUTO 00000KT 10SM CLR M04/M06 A3007 RMK AO2 SLP195 T10441061
2018-03-22 04:53 METAR KMGW 220853Z AUTO 00000KT 10SM CLR M04/M07 A3005 RMK AO2 SLP189 T10391067
                 51010 =
2018-03-22 03:53 METAR KMGW 220753Z AUTO 30003KT 10SM CLR M03/M07 A3004 RMK AO2 SLP186 T10281072
2018-03-22 02:53 METAR KMGW 220653Z AUTO 31003KT 10SM CLR M02/M07 A3003 RMK AO2 SLP183 T10221072
2018-03-22 01:53 METAR KMGW 220553Z AUTO 30003KT 10SM CLR M02/M07 A3002 RMK AO2 SLP177 60001
                 T10171067 11006 21017 53016 =
2018-03-22 00:53 METAR KMGW 220453Z AUTO 33005KT 10SM SCT055 BKN120 M01/M06 A3000 RMK AO2 SLP172
                 T10111061 400111028 =
2018-03-21 23:53 METAR KMGW 220353Z AUTO 30004KT 10SM OVC037 M01/M04 A2998 RMK AO2 SNE00 SLP165
                 P0000 T10061044 =
2018-03-21 22:53 METAR KMGW 220253Z 31003KT 9SM -SN FEW007 OVC031 M01/M03 A2997 RMK AO2 SLP161
                 P0001 60001 T10111028 51028 =
2018-03-21 22:37 METAR KMGW 220237Z 30003KT 5SM -SN SCT009 BKN019 OVC026 M01/M02 A2997 RMK AO2
                 P0001 T10111022 =
2018-03-21 22:33 METAR KMGW 220233Z 31003KT 2 1/2SM -SN FEW008 BKN011 OVC026 M01/M02 A2997 RMK
                 AO2 P0001 T10111022 =
2018-03-21 22:26 METAR KMGW 220226Z 32007KT 1 3/4SM -SN OVC011 M01/M02 A2997 RMK AO2 P0001
                 T10111022 =
2018-03-21 22:04 METAR KMGW 220204Z 32007KT 2 1/2SM -SN OVC011 M01/M02 A2995 RMK AO2 P0000
                 T10111022 =
2018-03-21 21:53 METAR KMGW 220153Z 31005KT 3SM -SN OVC010 M01/M02 A2995 RMK AO2 SLP154 P0000
                 T10061022 =
2018-03-21 21:29 METAR KMGW 220129Z VRB03KT 4SM -SN OVC010 M01/M02 A2994 RMK AO2 P0000 T10111022
2018-03-21 21:16 METAR KMGW 220116Z 00000KT 2 1/2SM -SN BKN010 OVC014 M01/M02 A2994 RMK AO2 P0000
                 T10111022 =
2018-03-21 21:06 METAR KMGW 220106Z 31003KT 3SM -SN BKN012 OVC019 M01/M02 A2993 RMK AO2 P0000
                 T10061022 =
2018-03-21 20:53 METAR KMGW 220053Z 33004KT 7SM -SN FEW012 OVC019 M01/M02 A2992 RMK AO2 SLP145
                 P0000 T10061022 =
2018-03-21 20:09 METAR KMGW 220009Z 33006KT 4SM -SN OVC015 M01/M03 A2989 RMK AO2 P0000 T10061033
2018-03-21 19:53 METAR KMGW 212353Z 34008KT 300V360 7SM -SN BKN014 BKN020 OVC025 M01/M03 A2988
                 RMK AO2 SLP132 P0000 60000 T10061033 10006 21006 53026 =
2018-03-21 19:39 METAR KMGW 212339Z 35008KT 4SM -SN BKN014 BKN022 OVC027 M01/M03 A2988 RMK AO2
                 P0000 T10061028 =
2018-03-21 19:08 METAR KMGW 212308Z 34009G19KT 5SM -SN FEW013 BKN021 OVC031 M01/M03 A2986 RMK AO2
                 P0000 T10061028 =
2018-03-21 18:53 METAR KMGW 212253Z 35012G19KT 2SM -SN SCT016 BKN024 OVC032 M01/M03 A2985 RMK AO2
                 SNB44 SLP120 P0000 T10061028 =
2018-03-21 18:00 METAR KMGW 212200Z 34009KT 7SM FEW013 BKN018 OVC026 00/M02 A2981 RMK AO2
                 T00001022 =
2018-03-21 17:53 METAR KMGW 212153Z 36010KT 8SM BKN014 BKN027 OVC034 00/M02 A2981 RMK AO2 SLP106
                 T00001022 =
2018-03-21 17:48 METAR KMGW 212148Z 35009KT 6SM HZ FEW012 BKN027 OVC034 01/M02 A2980 RMK AO2 =
2018-03-21 17:31 METAR KMGW 212131Z 35012KT 10SM FEW020 SCT027 OVC034 01/M02 A2979 RMK AO2
                 T00061022 =
2018-03-21 16:53 METAR KMGW 212053Z 35011G20KT 8SM SCT014 BKN021 OVC034 00/M02 A2977 RMK AO2
                 UPE00 SLP094 P0000 60000 T00001022 53025 =
2018-03-21 16:27 METAR KMGW 212027Z 01011G16KT 8SM SCT013 BKN018 OVC027 00/M02 A2976 RMK AO2
                 UPE00 P0000 T00001022 =
2018-03-21 16:12 METAR KMGW 212012Z 36012G17KT 8SM BKN013 BKN019 OVC027 01/M02 A2975 RMK AO2
                 UPE00 P0000 T00061022 =
2018-03-21 16:03 METAR KMGW 212003Z 36008KT 7SM BKN015 OVC019 00/M02 A2974 RMK AO2 UPE00 P0000
                 T00001022 =
2018-03-21 15:53 METAR KMGW 211953Z 01008KT 5SM UP OVC013 00/M03 A2974 RMK AO2 UPB50 SLP081 P0000
                 T00001028 =
2018-03-21 15:20 METAR KMGW 211920Z 01010KT 7SM BKN013 OVC019 00/M03 A2973 RMK AO2 T00001028 =
2018-03-21 14:53 METAR KMGW 211853Z 01012KT 6SM BR SCT011 OVC019 M01/M03 A2971 RMK AO2 SNB31E43
                 SLP072 P0000 T10061028 =
2018-03-21 14:07 METAR KMGW 211807Z 36010G17KT 6SM BR BKN011 OVC016 00/M02 A2970 RMK AO2 CIG
                 009V014 T00001022 =
2018-03-21 13:53 METAR KMGW 211753Z 01010KT 10SM SCT011 OVC018 00/M03 A2969 RMK AO2 SNE38 SLP066
                 P0000 60006 T00001028 10011 21022 51009 =
2018-03-21 13:03 METAR KMGW 211703Z 36008KT 4SM -SN BKN012 OVC033 01/M02 A2969 RMK AO2 P0000
                 T00111017 =
2018-03-21 13:00 METAR KMGW 211700Z 01006KT 4SM -SN SCT012 OVC033 01/M02 A2969 RMK AO2 P0000
                 T00061022 =
2018-03-21 12:53 METAR KMGW 211653Z 01010KT 6SM -SN BKN012 BKN023 OVC033 01/M03 A2969 RMK AO2
                 SLP063 P0000 T00061028 =
2018-03-21 12:37 METAR KMGW 211637Z 01009KT 6SM -SN BKN012 OVC033 00/M03 A2968 RMK AO2 P0000
                 T00001028 =
2018-03-21 12:29 METAR KMGW 211629Z 35008KT 2 1/2SM -SN BR BKN012 OVC032 00/M02 A2968 RMK AO2
                 P0000 T00001022 =
2018-03-21 12:15 METAR KMGW 211615Z 36008KT 6SM -SN BR BKN012 BKN018 OVC029 00/M02 A2968 RMK AO2
                 P0000 T00001022 =
2018-03-21 12:07 METAR KMGW 211607Z 01007KT 9SM -SN SCT011 BKN021 OVC029 00/M03 A2968 RMK AO2
                 P0000 T00001028 =
2018-03-21 11:53 METAR KMGW 211553Z 01006KT 3SM -SN BKN011 BKN019 OVC031 00/M03 A2968 RMK AO2
                 SNB04 SLP061 P0001 T00001028 =
2018-03-21 11:20 METAR KMGW 211520Z 36007KT 3SM -SN BR BKN010 BKN018 OVC024 M01/M03 A2967 RMK AO2
                 SNB04 P0000 T10061028 =
2018-03-21 11:08 METAR KMGW 211508Z 36006KT 3SM -SN BR BKN008 BKN014 OVC044 M01/M03 A2967 RMK AO2
                 SNB04 P0000 T10061028 =
2018-03-21 10:53 METAR KMGW 211453Z 01006KT 3SM BR SCT009 BKN014 OVC028 M01/M03 A2967 RMK AO2
                 SNE50 SLP057 P0000 60005 T10061028 53007 =
2018-03-21 10:49 METAR KMGW 211449Z 36006KT 3SM -SN BR BKN009 BKN019 OVC032 M01/M02 A2967 RMK AO2
                 P0000 =
2018-03-21 10:38 METAR KMGW 211438Z 36005KT 2SM -SN BR SCT007 BKN011 OVC033 M01/M03 A2966 RMK AO2
                 P0000 T10061028 =

Support USWX by starting your Amazon purchase here.